createdAt,value
2022-08-31T00:00:43.007Z,73.99
2022-08-31T00:01:42.993Z,73.79
2022-08-31T00:02:42.923Z,73.88
2022-08-31T00:03:42.883Z,73.79
2022-08-31T00:04:42.941Z,73.68
2022-08-31T00:05:42.882Z,73.88
2022-08-31T00:06:42.853Z,74.08
2022-08-31T00:07:42.844Z,74.19
2022-08-31T00:08:42.822Z,74.19
2022-08-31T00:09:42.854Z,74.29
2022-08-31T00:10:44.964Z,74.39
2022-08-31T00:11:42.802Z,74.39
2022-08-31T00:12:42.778Z,74.29
2022-08-31T00:13:42.774Z,74.49
2022-08-31T00:14:42.774Z,74.69
2022-08-31T00:15:42.746Z,75.23
2022-08-31T00:16:42.820Z,75.23
2022-08-31T00:17:42.724Z,75.34
2022-08-31T00:18:42.730Z,75.13
2022-08-31T00:19:42.717Z,75.13
2022-08-31T00:20:42.696Z,75.03
2022-08-31T00:21:42.791Z,74.93
2022-08-31T00:22:42.730Z,74.83
2022-08-31T00:23:42.677Z,74.79
2022-08-31T00:24:42.695Z,74.69
2022-08-31T00:25:42.644Z,74.79
2022-08-31T00:26:42.652Z,74.79
2022-08-31T00:27:42.616Z,74.69
2022-08-31T00:28:42.633Z,74.69
2022-08-31T00:29:42.611Z,74.69
2022-08-31T00:30:43.567Z,74.59
2022-08-31T00:31:42.612Z,74.59
2022-08-31T00:32:42.617Z,74.69
2022-08-31T00:33:42.570Z,74.59
2022-08-31T00:34:43.807Z,74.69
2022-08-31T00:35:42.535Z,74.59
2022-08-31T00:36:42.512Z,74.59
2022-08-31T00:37:42.502Z,74.69
2022-08-31T00:38:42.513Z,74.69
2022-08-31T00:39:42.492Z,74.69
2022-08-31T00:40:44.923Z,74.69
2022-08-31T00:41:42.483Z,74.79
2022-08-31T00:42:42.456Z,74.79
2022-08-31T00:43:42.455Z,74.99
2022-08-31T00:44:42.467Z,75.10
2022-08-31T00:45:42.496Z,75.13
2022-08-31T00:46:42.435Z,75.23
2022-08-31T00:47:43.008Z,75.34
2022-08-31T00:48:42.383Z,75.43
2022-08-31T00:49:42.417Z,75.54
2022-08-31T00:50:42.355Z,75.63
2022-08-31T00:51:43.306Z,75.74
2022-08-31T00:52:42.330Z,75.74
2022-08-31T00:53:42.349Z,75.94
2022-08-31T00:54:42.296Z,76.14
2022-08-31T00:55:42.306Z,76.14
2022-08-31T00:56:42.287Z,76.18
2022-08-31T00:57:42.294Z,76.28
2022-08-31T00:58:42.258Z,76.38
2022-08-31T00:59:42.248Z,76.58
2022-08-31T01:00:42.294Z,76.68
2022-08-31T01:01:42.302Z,76.68
2022-08-31T01:02:42.213Z,76.68
2022-08-31T01:03:42.229Z,76.68
2022-08-31T01:04:42.192Z,76.78
2022-08-31T01:05:42.203Z,76.98
2022-08-31T01:06:42.175Z,76.98
2022-08-31T01:07:42.155Z,76.88
2022-08-31T01:08:42.170Z,76.98
2022-08-31T01:09:53.246Z,76.88
2022-08-31T01:10:43.112Z,76.78
2022-08-31T01:11:42.117Z,76.88
2022-08-31T01:12:42.093Z,77.19
2022-08-31T01:13:42.095Z,77.19
2022-08-31T01:14:42.104Z,77.49
2022-08-31T01:15:42.101Z,77.53
2022-08-31T01:16:42.120Z,77.53
2022-08-31T01:17:42.065Z,77.73
2022-08-31T01:18:42.054Z,77.73
2022-08-31T01:19:42.030Z,77.83
2022-08-31T01:20:42.016Z,77.93
2022-08-31T01:21:43.087Z,78.03
2022-08-31T01:22:41.989Z,78.13
2022-08-31T01:23:41.986Z,78.13
2022-08-31T01:24:41.967Z,78.13
2022-08-31T01:25:41.957Z,78.13
2022-08-31T01:26:41.938Z,78.43
2022-08-31T01:27:41.986Z,78.43
2022-08-31T01:28:41.953Z,78.74
2022-08-31T01:29:41.907Z,79.08
2022-08-31T01:30:41.912Z,79.08
2022-08-31T01:31:41.928Z,79.08
2022-08-31T01:32:41.893Z,78.97
2022-08-31T01:33:41.883Z,78.88
2022-08-31T01:34:41.865Z,78.74
2022-08-31T01:35:41.906Z,78.63
2022-08-31T01:36:41.825Z,78.53
2022-08-31T01:37:41.819Z,78.43
2022-08-31T01:38:41.833Z,78.53
2022-08-31T01:39:41.812Z,78.63
2022-08-31T01:40:41.801Z,79.08
2022-08-31T01:41:41.774Z,79.08
2022-08-31T01:42:41.768Z,79.28
2022-08-31T01:43:41.769Z,79.17
2022-08-31T01:44:41.745Z,79.28
2022-08-31T01:45:41.740Z,79.08
2022-08-31T01:46:41.760Z,79.17
2022-08-31T01:47:41.826Z,78.97
2022-08-31T01:48:41.784Z,78.97
2022-08-31T01:49:41.689Z,78.97
2022-08-31T01:50:41.679Z,78.84
2022-08-31T01:51:41.658Z,78.84
2022-08-31T01:52:41.646Z,78.84
2022-08-31T01:53:42.659Z,78.84
2022-08-31T01:54:41.658Z,78.84
2022-08-31T01:55:41.610Z,78.94
2022-08-31T01:56:41.596Z,78.94
2022-08-31T01:57:41.600Z,78.74
2022-08-31T01:58:41.582Z,78.84
2022-08-31T01:59:41.583Z,78.74
2022-08-31T02:00:41.606Z,78.94
2022-08-31T02:01:41.746Z,78.84
2022-08-31T02:02:42.010Z,79.04
2022-08-31T02:03:41.522Z,78.94
2022-08-31T02:04:41.524Z,79.04
2022-08-31T02:05:41.537Z,79.04
2022-08-31T02:06:41.486Z,79.14
2022-08-31T02:07:41.462Z,79.38
2022-08-31T02:08:41.474Z,79.38
2022-08-31T02:09:41.444Z,79.79
2022-08-31T02:10:41.483Z,79.88
2022-08-31T02:11:41.441Z,80.08
2022-08-31T02:12:41.415Z,80.19
2022-08-31T02:13:41.395Z,80.08
2022-08-31T02:14:41.385Z,80.19
2022-08-31T02:15:41.447Z,80.08
2022-08-31T02:16:41.447Z,79.88
2022-08-31T02:17:41.357Z,79.99
2022-08-31T02:18:41.346Z,79.79
2022-08-31T02:19:41.332Z,79.99
2022-08-31T02:20:41.332Z,79.88
2022-08-31T02:21:41.317Z,79.99
2022-08-31T02:22:41.309Z,79.99
2022-08-31T02:23:41.313Z,79.99
2022-08-31T02:24:41.275Z,80.08
2022-08-31T02:25:41.283Z,80.32
2022-08-31T02:26:41.284Z,80.43
2022-08-31T02:27:41.260Z,80.63
2022-08-31T02:28:41.253Z,80.73
2022-08-31T02:29:41.232Z,80.83
2022-08-31T02:30:41.236Z,80.73
2022-08-31T02:31:41.244Z,80.73
2022-08-31T02:32:41.244Z,80.73
2022-08-31T02:33:41.169Z,80.73
2022-08-31T02:34:41.199Z,80.73
2022-08-31T02:35:41.148Z,80.63
2022-08-31T02:36:41.143Z,80.63
2022-08-31T02:37:41.155Z,80.73
2022-08-31T02:38:41.115Z,80.73
2022-08-31T02:39:41.120Z,80.83
2022-08-31T02:40:41.238Z,80.93
2022-08-31T02:41:41.107Z,80.93
2022-08-31T02:42:52.845Z,81.03
2022-08-31T02:43:42.096Z,80.93
2022-08-31T02:44:41.045Z,81.03
2022-08-31T02:45:41.048Z,81.13
2022-08-31T02:46:41.085Z,81.34
2022-08-31T02:47:41.048Z,81.44
2022-08-31T02:48:41.008Z,81.23
2022-08-31T02:49:40.990Z,81.23
2022-08-31T02:50:41.008Z,81.48
2022-08-31T02:51:40.960Z,81.68
2022-08-31T02:52:40.980Z,81.68
2022-08-31T02:53:40.941Z,81.68
2022-08-31T02:54:40.973Z,81.78
2022-08-31T02:55:40.959Z,81.57
2022-08-31T02:56:40.901Z,81.68
2022-08-31T02:57:40.953Z,81.68
2022-08-31T02:58:41.823Z,81.68
2022-08-31T02:59:40.875Z,81.78
2022-08-31T03:00:40.872Z,81.68
2022-08-31T03:01:40.969Z,81.57
2022-08-31T03:02:40.851Z,81.57
2022-08-31T03:03:40.832Z,81.68
2022-08-31T03:04:41.805Z,81.68
2022-08-31T03:05:40.810Z,81.68
2022-08-31T03:06:40.802Z,81.68
2022-08-31T03:07:40.776Z,81.68
2022-08-31T03:08:40.805Z,81.68
2022-08-31T03:09:40.786Z,81.57
2022-08-31T03:10:40.772Z,81.68
2022-08-31T03:11:40.732Z,81.68
2022-08-31T03:12:40.729Z,81.57
2022-08-31T03:13:40.748Z,81.68
2022-08-31T03:14:40.688Z,81.68
2022-08-31T03:15:40.732Z,81.57
2022-08-31T03:16:40.675Z,81.88
2022-08-31T03:17:40.676Z,81.98
2022-08-31T03:18:40.655Z,81.88
2022-08-31T03:19:40.654Z,81.98
2022-08-31T03:20:40.633Z,81.88
2022-08-31T03:21:40.625Z,81.88
2022-08-31T03:22:40.601Z,81.88
2022-08-31T03:23:41.602Z,81.98
2022-08-31T03:24:40.597Z,82.08
2022-08-31T03:25:40.572Z,82.28
2022-08-31T03:26:40.568Z,82.49
2022-08-31T03:27:40.546Z,82.53
2022-08-31T03:28:40.555Z,82.53
2022-08-31T03:29:40.543Z,82.73
2022-08-31T03:30:40.636Z,82.83
2022-08-31T03:31:40.530Z,83.03
2022-08-31T03:32:40.504Z,83.03
2022-08-31T03:33:40.482Z,83.13
2022-08-31T03:34:40.503Z,83.23
2022-08-31T03:35:40.498Z,83.13
2022-08-31T03:36:40.495Z,83.13
2022-08-31T03:37:40.447Z,83.44
2022-08-31T03:38:40.430Z,83.68
2022-08-31T03:39:40.436Z,83.78
2022-08-31T03:40:40.536Z,83.68
2022-08-31T03:41:40.388Z,83.78
2022-08-31T03:42:40.377Z,83.68
2022-08-31T03:43:40.360Z,83.64
2022-08-31T03:44:40.374Z,83.54
2022-08-31T03:45:40.347Z,83.44
2022-08-31T03:46:40.391Z,83.33
2022-08-31T03:47:43.474Z,83.23
2022-08-31T03:48:40.302Z,83.03
2022-08-31T03:49:40.311Z,83.03
2022-08-31T03:50:40.282Z,83.03
2022-08-31T03:51:40.286Z,83.03
2022-08-31T03:52:40.262Z,82.93
2022-08-31T03:53:40.296Z,83.03
2022-08-31T03:54:40.272Z,83.13
2022-08-31T03:55:40.261Z,83.13
2022-08-31T03:56:40.244Z,83.23
2022-08-31T03:57:40.214Z,83.23
2022-08-31T03:58:40.193Z,83.37
2022-08-31T03:59:40.193Z,83.58
2022-08-31T04:00:40.164Z,83.68
2022-08-31T04:01:40.230Z,83.88
2022-08-31T04:02:40.226Z,84.08
2022-08-31T04:03:40.140Z,84.19
2022-08-31T04:04:40.133Z,84.19
2022-08-31T04:05:40.109Z,84.28
2022-08-31T04:06:40.119Z,84.28
2022-08-31T04:07:42.869Z,84.28
2022-08-31T04:08:40.078Z,84.19
2022-08-31T04:09:40.080Z,84.08
2022-08-31T04:10:40.058Z,83.98
2022-08-31T04:11:44.603Z,83.98
2022-08-31T04:12:41.051Z,83.98
2022-08-31T04:13:40.029Z,83.78
2022-08-31T04:14:40.010Z,83.78
2022-08-31T04:15:40.065Z,83.68
2022-08-31T04:16:39.980Z,83.78
2022-08-31T04:17:39.981Z,83.58
2022-08-31T04:18:39.984Z,83.58
2022-08-31T04:19:39.972Z,83.58
2022-08-31T04:20:39.953Z,83.68
2022-08-31T04:21:39.922Z,83.68
2022-08-31T04:22:39.912Z,83.68
2022-08-31T04:23:39.913Z,83.78
2022-08-31T04:24:39.912Z,83.98
2022-08-31T04:25:39.895Z,84.22
2022-08-31T04:26:39.866Z,84.33
2022-08-31T04:27:39.854Z,84.33
2022-08-31T04:28:39.854Z,84.53
2022-08-31T04:29:39.850Z,84.73
2022-08-31T04:30:39.940Z,84.93
2022-08-31T04:31:39.814Z,85.03
2022-08-31T04:32:39.818Z,85.03
2022-08-31T04:33:39.819Z,85.03
2022-08-31T04:34:39.798Z,84.93
2022-08-31T04:35:39.766Z,84.93
2022-08-31T04:36:39.770Z,84.83
2022-08-31T04:37:43.312Z,84.63
2022-08-31T04:38:40.755Z,84.63
2022-08-31T04:39:50.831Z,84.42
2022-08-31T04:40:40.858Z,84.42
2022-08-31T04:41:39.711Z,84.42
2022-08-31T04:42:39.694Z,84.33
2022-08-31T04:43:39.675Z,84.42
2022-08-31T04:44:39.686Z,84.42
2022-08-31T04:45:39.722Z,84.63
2022-08-31T04:46:39.651Z,84.63
2022-08-31T04:47:39.651Z,84.63
2022-08-31T04:48:39.642Z,84.73
2022-08-31T04:49:39.622Z,84.83
2022-08-31T04:50:42.741Z,84.83
2022-08-31T04:51:39.623Z,85.03
2022-08-31T04:52:39.649Z,85.58
2022-08-31T04:53:39.579Z,85.78
2022-08-31T04:54:39.568Z,86.08
2022-08-31T04:55:39.561Z,86.19
2022-08-31T04:56:39.527Z,86.39
2022-08-31T04:57:39.589Z,86.29
2022-08-31T04:58:39.505Z,86.29
2022-08-31T04:59:39.613Z,86.29
2022-08-31T05:00:39.485Z,86.39
2022-08-31T05:01:42.834Z,86.19
2022-08-31T05:02:39.612Z,86.19
2022-08-31T05:03:39.481Z,86.08
2022-08-31T05:04:39.568Z,86.19
2022-08-31T05:05:39.444Z,85.99
2022-08-31T05:06:39.424Z,86.08
2022-08-31T05:07:39.440Z,86.08
2022-08-31T05:08:39.400Z,86.39
2022-08-31T05:09:39.396Z,86.39
2022-08-31T05:10:39.423Z,86.39
2022-08-31T05:11:39.367Z,86.39
2022-08-31T05:12:39.380Z,86.19
2022-08-31T05:13:39.348Z,86.19
2022-08-31T05:14:39.428Z,86.19
2022-08-31T05:15:39.385Z,86.19
2022-08-31T05:16:39.319Z,86.19
2022-08-31T05:17:39.291Z,86.19
2022-08-31T05:18:39.290Z,86.19
2022-08-31T05:19:41.325Z,86.49
2022-08-31T05:20:39.283Z,86.69
2022-08-31T05:21:39.453Z,86.49
2022-08-31T05:22:39.255Z,86.29
2022-08-31T05:23:39.253Z,85.99
2022-08-31T05:24:39.238Z,85.94
2022-08-31T05:25:39.204Z,85.84
2022-08-31T05:26:39.185Z,85.64
2022-08-31T05:27:39.185Z,85.74
2022-08-31T05:28:39.187Z,85.99
2022-08-31T05:29:39.156Z,85.88
2022-08-31T05:30:39.227Z,85.99
2022-08-31T05:31:39.159Z,86.39
2022-08-31T05:32:39.424Z,86.49
2022-08-31T05:33:39.110Z,86.59
2022-08-31T05:34:39.121Z,86.49
2022-08-31T05:35:39.098Z,86.49
2022-08-31T05:36:39.084Z,86.39
2022-08-31T05:37:39.065Z,86.39
2022-08-31T05:38:39.118Z,86.49
2022-08-31T05:39:39.160Z,86.39
2022-08-31T05:40:39.143Z,86.29
2022-08-31T05:41:39.040Z,86.29
2022-08-31T05:42:39.034Z,86.19
2022-08-31T05:43:39.000Z,86.08
2022-08-31T05:44:39.018Z,85.88
2022-08-31T05:45:39.959Z,85.88
2022-08-31T05:46:39.040Z,85.99
2022-08-31T05:47:38.966Z,85.99
2022-08-31T05:48:38.957Z,85.84
2022-08-31T05:49:41.299Z,85.64
2022-08-31T05:50:38.950Z,85.78
2022-08-31T05:51:38.920Z,85.78
2022-08-31T05:52:38.919Z,86.08
2022-08-31T05:53:38.879Z,86.19
2022-08-31T05:54:38.877Z,86.19
2022-08-31T05:55:38.860Z,86.08
2022-08-31T05:56:38.864Z,85.99
2022-08-31T05:57:38.845Z,86.19
2022-08-31T05:58:38.824Z,85.99
2022-08-31T05:59:38.831Z,85.88
2022-08-31T06:00:38.798Z,85.64
2022-08-31T06:01:38.842Z,85.44
2022-08-31T06:02:38.789Z,85.44
2022-08-31T06:03:38.761Z,85.33
2022-08-31T06:04:38.762Z,85.44
2022-08-31T06:05:38.837Z,85.24
2022-08-31T06:06:38.749Z,85.24
2022-08-31T06:07:38.719Z,85.48
2022-08-31T06:08:38.727Z,85.68
2022-08-31T06:09:38.719Z,85.58
2022-08-31T06:10:38.701Z,85.58
2022-08-31T06:11:38.695Z,85.54
2022-08-31T06:12:38.676Z,85.44
2022-08-31T06:13:38.642Z,85.33
2022-08-31T06:14:38.955Z,85.24
2022-08-31T06:15:39.521Z,85.13
2022-08-31T06:16:38.656Z,85.24
2022-08-31T06:17:38.624Z,85.33
2022-08-31T06:18:38.663Z,85.24
2022-08-31T06:19:38.579Z,85.33
2022-08-31T06:20:38.576Z,85.33
2022-08-31T06:21:38.598Z,85.24
2022-08-31T06:22:38.560Z,85.24
2022-08-31T06:23:38.547Z,85.03
2022-08-31T06:24:38.537Z,85.13
2022-08-31T06:25:38.544Z,85.03
2022-08-31T06:26:38.522Z,84.93
2022-08-31T06:27:38.491Z,84.73
2022-08-31T06:28:38.486Z,84.59
2022-08-31T06:29:38.502Z,84.39
2022-08-31T06:30:47.790Z,84.19
2022-08-31T06:31:39.478Z,84.28
2022-08-31T06:32:38.431Z,84.39
2022-08-31T06:33:38.429Z,84.39
2022-08-31T06:34:38.432Z,83.98
2022-08-31T06:35:38.396Z,84.19
2022-08-31T06:36:38.398Z,84.28
2022-08-31T06:37:38.384Z,84.53
2022-08-31T06:38:38.367Z,84.83
2022-08-31T06:39:38.378Z,84.73
2022-08-31T06:40:38.396Z,84.63
2022-08-31T06:41:38.340Z,84.53
2022-08-31T06:42:38.324Z,84.48
2022-08-31T06:43:38.313Z,84.28
2022-08-31T06:44:38.308Z,84.28
2022-08-31T06:45:38.279Z,84.19
2022-08-31T06:46:38.362Z,83.98
2022-08-31T06:47:38.261Z,83.78
2022-08-31T06:48:38.258Z,83.64
2022-08-31T06:49:38.256Z,83.33
2022-08-31T06:50:38.263Z,83.13
2022-08-31T06:51:38.459Z,82.93
2022-08-31T06:52:39.052Z,82.83
2022-08-31T06:53:38.186Z,82.62
2022-08-31T06:54:38.204Z,82.49
2022-08-31T06:55:38.164Z,82.39
2022-08-31T06:56:38.159Z,82.28
2022-08-31T06:57:38.178Z,82.18
2022-08-31T06:58:38.141Z,82.18
2022-08-31T06:59:38.139Z,82.18
2022-08-31T07:00:38.134Z,82.18
2022-08-31T07:01:38.184Z,82.59
2022-08-31T07:02:38.157Z,82.49
2022-08-31T07:03:38.077Z,82.39
2022-08-31T07:04:38.088Z,82.28
2022-08-31T07:05:38.137Z,82.28
2022-08-31T07:06:38.063Z,82.08
2022-08-31T07:07:38.032Z,82.18
2022-08-31T07:08:38.045Z,82.39
2022-08-31T07:09:38.044Z,82.39
2022-08-31T07:10:38.018Z,82.39
2022-08-31T07:11:42.160Z,82.69
2022-08-31T07:12:39.012Z,82.28
2022-08-31T07:13:37.969Z,82.28
2022-08-31T07:14:37.989Z,82.18
2022-08-31T07:15:37.963Z,82.39
2022-08-31T07:16:38.031Z,82.39
2022-08-31T07:17:37.923Z,82.49
2022-08-31T07:18:37.909Z,82.49
2022-08-31T07:19:37.889Z,82.39
2022-08-31T07:20:38.932Z,82.45
2022-08-31T07:21:37.909Z,82.14
2022-08-31T07:22:37.884Z,81.94
2022-08-31T07:23:37.849Z,81.94
2022-08-31T07:24:37.849Z,82.04
2022-08-31T07:25:37.868Z,82.14
2022-08-31T07:26:37.823Z,81.94
2022-08-31T07:27:37.810Z,81.94
2022-08-31T07:28:37.801Z,81.84
2022-08-31T07:29:37.774Z,81.60
2022-08-31T07:30:37.834Z,81.20
2022-08-31T07:31:37.786Z,81.20
2022-08-31T07:32:37.754Z,81.60
2022-08-31T07:33:37.756Z,81.60
2022-08-31T07:34:37.725Z,81.50
2022-08-31T07:35:37.725Z,81.16
2022-08-31T07:36:37.703Z,81.05
2022-08-31T07:37:37.708Z,80.76
2022-08-31T07:38:37.686Z,80.76
2022-08-31T07:39:37.665Z,80.62
2022-08-31T07:40:37.790Z,80.31
2022-08-31T07:41:37.645Z,80.62
2022-08-31T07:42:37.634Z,80.92
2022-08-31T07:43:37.628Z,80.51
2022-08-31T07:44:37.635Z,80.11
2022-08-31T07:45:39.400Z,80.31
2022-08-31T07:46:37.614Z,80.07
2022-08-31T07:47:37.585Z,79.67
2022-08-31T07:48:37.585Z,79.67
2022-08-31T07:49:37.548Z,79.36
2022-08-31T07:50:37.561Z,79.16
2022-08-31T07:51:37.537Z,79.36
2022-08-31T07:52:37.520Z,79.16
2022-08-31T07:53:37.508Z,78.86
2022-08-31T07:54:37.510Z,79.06
2022-08-31T07:55:37.520Z,79.16
2022-08-31T07:56:37.474Z,79.47
2022-08-31T07:57:37.470Z,79.27
2022-08-31T07:58:37.486Z,78.96
2022-08-31T07:59:37.441Z,78.72
2022-08-31T08:00:38.119Z,78.66
2022-08-31T08:01:37.474Z,78.42
2022-08-31T08:02:37.539Z,78.56
2022-08-31T08:03:37.407Z,78.42
2022-08-31T08:04:37.395Z,78.63
2022-08-31T08:05:37.390Z,78.42
2022-08-31T08:06:37.383Z,77.72
2022-08-31T08:07:37.346Z,77.72
2022-08-31T08:08:37.343Z,77.78
2022-08-31T08:09:37.347Z,77.78
2022-08-31T08:10:37.651Z,77.38
2022-08-31T08:11:37.308Z,77.28
2022-08-31T08:12:37.321Z,76.94
2022-08-31T08:13:37.282Z,76.74
2022-08-31T08:14:37.282Z,76.43
2022-08-31T08:15:37.282Z,76.50
2022-08-31T08:16:37.318Z,76.20
2022-08-31T08:17:37.287Z,75.70
2022-08-31T08:18:37.219Z,75.59
2022-08-31T08:19:37.244Z,75.49
2022-08-31T08:20:38.485Z,75.59
2022-08-31T08:21:37.216Z,75.90
2022-08-31T08:22:51.609Z,75.79
2022-08-31T08:23:38.222Z,75.70
2022-08-31T08:24:37.161Z,76.14
2022-08-31T08:25:37.144Z,76.14
2022-08-31T08:26:37.170Z,75.73
2022-08-31T08:27:37.123Z,76.34
2022-08-31T08:28:40.103Z,76.74
2022-08-31T08:29:37.165Z,76.84
2022-08-31T08:30:37.155Z,76.74
2022-08-31T08:31:37.115Z,76.10
2022-08-31T08:32:37.095Z,75.79
2022-08-31T08:33:37.055Z,75.49
2022-08-31T08:34:37.105Z,75.09
2022-08-31T08:35:37.036Z,74.89
2022-08-31T08:36:37.044Z,74.89
2022-08-31T08:37:57.171Z,74.89
2022-08-31T08:38:38.018Z,74.79
2022-08-31T08:39:36.992Z,74.58
2022-08-31T08:40:37.017Z,74.58
2022-08-31T08:41:36.966Z,74.55
2022-08-31T08:42:37.055Z,74.25
2022-08-31T08:43:37.020Z,74.35
2022-08-31T08:44:36.918Z,74.05
2022-08-31T08:45:37.046Z,74.15
2022-08-31T08:46:37.030Z,73.81
2022-08-31T08:47:38.439Z,73.61
2022-08-31T08:48:36.957Z,73.41
2022-08-31T08:49:36.912Z,73.51
2022-08-31T08:50:36.867Z,73.41
2022-08-31T08:51:36.859Z,73.31
2022-08-31T08:52:36.851Z,73.31
2022-08-31T08:53:36.832Z,73.61
2022-08-31T08:54:36.834Z,73.31
2022-08-31T08:55:36.801Z,73.91
2022-08-31T08:56:36.789Z,73.85
2022-08-31T08:57:36.783Z,73.85
2022-08-31T08:58:36.801Z,74.15
2022-08-31T08:59:36.787Z,74.15
2022-08-31T09:00:36.783Z,74.35
2022-08-31T09:01:36.832Z,74.45
2022-08-31T09:02:36.879Z,74.01
2022-08-31T09:03:36.716Z,73.51
2022-08-31T09:04:36.698Z,73.21
2022-08-31T09:05:36.694Z,72.81
2022-08-31T09:06:45.356Z,73.00
2022-08-31T09:07:37.694Z,72.81
2022-08-31T09:08:36.707Z,72.81
2022-08-31T09:09:36.649Z,72.91
2022-08-31T09:10:36.648Z,72.81
2022-08-31T09:11:36.624Z,72.81
2022-08-31T09:12:36.629Z,72.71
2022-08-31T09:13:36.610Z,72.91
2022-08-31T09:14:36.600Z,72.61
2022-08-31T09:15:37.014Z,72.50
2022-08-31T09:16:36.657Z,72.41
2022-08-31T09:17:36.553Z,72.61
2022-08-31T09:18:36.562Z,72.61
2022-08-31T09:19:36.584Z,72.50
2022-08-31T09:20:36.572Z,72.50
2022-08-31T09:21:36.506Z,72.50
2022-08-31T09:22:36.496Z,72.50
2022-08-31T09:23:36.486Z,72.30
2022-08-31T09:24:36.473Z,72.61
2022-08-31T09:25:36.483Z,72.41
2022-08-31T09:26:36.453Z,72.81
2022-08-31T09:27:36.447Z,73.11
2022-08-31T09:28:36.434Z,72.71
2022-08-31T09:29:37.396Z,72.61
2022-08-31T09:30:36.408Z,72.61
2022-08-31T09:31:36.439Z,72.50
2022-08-31T09:32:36.408Z,72.20
2022-08-31T09:33:36.379Z,72.10
2022-08-31T09:34:36.374Z,72.10
2022-08-31T09:35:36.347Z,72.30
2022-08-31T09:36:36.335Z,72.37
2022-08-31T09:37:36.326Z,72.07
2022-08-31T09:38:36.335Z,71.56
2022-08-31T09:39:37.119Z,71.67
2022-08-31T09:40:36.428Z,71.33
2022-08-31T09:41:36.319Z,71.13
2022-08-31T09:42:36.293Z,70.83
2022-08-31T09:43:36.304Z,71.06
2022-08-31T09:44:36.273Z,71.47
2022-08-31T09:45:41.250Z,71.56
2022-08-31T09:46:37.258Z,71.26
2022-08-31T09:47:36.258Z,71.33
2022-08-31T09:48:37.044Z,71.33
2022-08-31T09:49:36.201Z,70.83
2022-08-31T09:50:36.178Z,70.83
2022-08-31T09:51:36.195Z,70.43
2022-08-31T09:52:36.165Z,70.12
2022-08-31T09:53:36.149Z,70.53
2022-08-31T09:54:36.130Z,70.12
2022-08-31T09:55:36.127Z,70.43
2022-08-31T09:56:36.116Z,70.32
2022-08-31T09:57:36.153Z,70.39
2022-08-31T09:58:36.076Z,70.03
2022-08-31T09:59:36.100Z,70.29
2022-08-31T10:00:36.085Z,69.99
2022-08-31T10:01:36.154Z,69.79
2022-08-31T10:02:36.086Z,69.69
2022-08-31T10:03:36.028Z,69.59
2022-08-31T10:04:36.092Z,69.46
2022-08-31T10:05:36.103Z,69.26
2022-08-31T10:06:36.000Z,68.95
2022-08-31T10:07:35.983Z,68.55
2022-08-31T10:08:36.002Z,68.65
2022-08-31T10:09:35.965Z,68.65
2022-08-31T10:10:35.954Z,68.55
2022-08-31T10:11:35.943Z,68.65
2022-08-31T10:12:35.955Z,68.52
2022-08-31T10:13:35.930Z,68.52
2022-08-31T10:14:35.903Z,68.52
2022-08-31T10:15:35.962Z,67.82
2022-08-31T10:16:35.875Z,67.02
2022-08-31T10:17:35.922Z,67.42
2022-08-31T10:18:37.808Z,67.32
2022-08-31T10:19:35.861Z,67.22
2022-08-31T10:20:35.866Z,67.72
2022-08-31T10:21:35.832Z,67.82
2022-08-31T10:22:35.837Z,67.61
2022-08-31T10:23:35.811Z,67.58
2022-08-31T10:24:35.797Z,67.29
2022-08-31T10:25:35.802Z,67.05
2022-08-31T10:26:35.766Z,67.05
2022-08-31T10:27:35.759Z,66.15
2022-08-31T10:28:35.753Z,66.12
2022-08-31T10:29:35.756Z,65.35
2022-08-31T10:30:35.719Z,65.85
2022-08-31T10:31:35.830Z,66.48
2022-08-31T10:32:35.724Z,66.25
2022-08-31T10:33:35.692Z,65.55
2022-08-31T10:34:35.678Z,65.45
2022-08-31T10:35:35.674Z,65.65
2022-08-31T10:36:35.658Z,65.55
2022-08-31T10:37:35.703Z,65.31
2022-08-31T10:38:35.639Z,65.52
2022-08-31T10:39:35.615Z,65.72
2022-08-31T10:40:35.789Z,65.12
2022-08-31T10:41:35.639Z,64.89
2022-08-31T10:42:35.622Z,64.59
2022-08-31T10:43:35.608Z,64.18
2022-08-31T10:44:35.600Z,64.59
2022-08-31T10:45:35.548Z,63.39
2022-08-31T10:46:35.745Z,64.09
2022-08-31T10:47:35.568Z,63.68
2022-08-31T10:48:35.520Z,63.89
2022-08-31T10:49:35.533Z,63.98
2022-08-31T10:50:35.488Z,64.09
2022-08-31T10:51:35.520Z,63.98
2022-08-31T10:52:35.564Z,63.45
2022-08-31T10:53:39.755Z,63.35
2022-08-31T10:54:35.447Z,62.75
2022-08-31T10:55:35.436Z,62.52
2022-08-31T10:56:35.446Z,62.52
2022-08-31T10:57:35.482Z,62.52
2022-08-31T10:58:35.403Z,62.35
2022-08-31T10:59:35.407Z,62.85
2022-08-31T11:00:35.396Z,62.95
2022-08-31T11:01:35.493Z,63.15
2022-08-31T11:02:35.356Z,62.25
2022-08-31T11:03:35.406Z,62.72
2022-08-31T11:04:35.413Z,62.52
2022-08-31T11:05:35.341Z,62.02
2022-08-31T11:06:35.338Z,61.40
2022-08-31T11:07:35.333Z,61.49
2022-08-31T11:08:35.296Z,61.19
2022-08-31T11:09:35.297Z,61.19
2022-08-31T11:10:35.310Z,61.29
2022-08-31T11:11:35.263Z,61.29
2022-08-31T11:12:36.254Z,61.19
2022-08-31T11:13:35.232Z,60.79
2022-08-31T11:14:35.244Z,61.16
2022-08-31T11:15:35.267Z,61.07
2022-08-31T11:16:35.222Z,59.97
2022-08-31T11:17:35.222Z,59.89
2022-08-31T11:18:35.194Z,60.10
2022-08-31T11:19:35.187Z,60.19
2022-08-31T11:20:35.208Z,59.49
2022-08-31T11:21:35.294Z,60.39
2022-08-31T11:22:35.163Z,60.29
2022-08-31T11:23:35.133Z,60.39
2022-08-31T11:24:37.472Z,59.97
2022-08-31T11:25:35.114Z,59.97
2022-08-31T11:26:35.103Z,60.27
2022-08-31T11:27:35.076Z,59.77
2022-08-31T11:28:35.093Z,59.66
2022-08-31T11:29:35.061Z,58.67
2022-08-31T11:30:37.581Z,58.59
2022-08-31T11:31:36.109Z,58.99
2022-08-31T11:32:35.016Z,58.56
2022-08-31T11:33:35.091Z,59.06
2022-08-31T11:34:35.010Z,58.99
2022-08-31T11:35:34.989Z,59.06
2022-08-31T11:36:36.000Z,59.06
2022-08-31T11:37:34.978Z,58.67
2022-08-31T11:38:34.953Z,58.00
2022-08-31T11:39:34.973Z,57.57
2022-08-31T11:40:34.988Z,56.27
2022-08-31T11:41:34.915Z,57.57
2022-08-31T11:42:34.907Z,57.46
2022-08-31T11:43:34.895Z,57.29
2022-08-31T11:44:34.902Z,57.59
2022-08-31T11:45:34.880Z,57.79
2022-08-31T11:46:34.918Z,58.29
2022-08-31T11:47:34.874Z,58.29
2022-08-31T11:48:34.848Z,58.29
2022-08-31T11:49:34.832Z,58.62
2022-08-31T11:50:34.828Z,58.82
2022-08-31T11:51:40.143Z,59.02
2022-08-31T11:52:35.882Z,58.52
2022-08-31T11:53:34.781Z,57.92
2022-08-31T11:54:34.771Z,57.92
2022-08-31T11:55:34.760Z,58.02
2022-08-31T11:56:34.746Z,58.32
2022-08-31T11:57:37.739Z,58.42
2022-08-31T11:58:34.730Z,58.62
2022-08-31T11:59:34.723Z,58.62
2022-08-31T12:00:34.726Z,58.92
2022-08-31T12:01:34.694Z,59.12
2022-08-31T12:02:34.759Z,58.99
2022-08-31T12:03:34.697Z,58.09
2022-08-31T12:04:34.671Z,57.39
2022-08-31T12:05:34.715Z,57.59
2022-08-31T12:06:34.654Z,57.50
2022-08-31T12:07:34.632Z,57.69
2022-08-31T12:08:34.619Z,57.09
2022-08-31T12:09:34.597Z,56.70
2022-08-31T12:10:34.608Z,57.09
2022-08-31T12:11:34.585Z,56.59
2022-08-31T12:12:34.587Z,56.99
2022-08-31T12:13:34.572Z,56.96
2022-08-31T12:14:34.563Z,57.37
2022-08-31T12:15:34.585Z,56.07
2022-08-31T12:16:34.732Z,55.07
2022-08-31T12:17:34.501Z,55.69
2022-08-31T12:18:34.821Z,55.66
2022-08-31T12:19:34.506Z,56.37
2022-08-31T12:20:34.466Z,56.16
2022-08-31T12:21:34.463Z,56.04
2022-08-31T12:22:34.475Z,55.54
2022-08-31T12:23:34.648Z,55.02
2022-08-31T12:24:34.421Z,54.82
2022-08-31T12:25:34.421Z,54.91
2022-08-31T12:26:34.409Z,55.02
2022-08-31T12:27:34.405Z,55.02
2022-08-31T12:28:34.420Z,55.41
2022-08-31T12:29:34.372Z,55.91
2022-08-31T12:30:34.375Z,54.74
2022-08-31T12:31:34.405Z,55.14
2022-08-31T12:32:36.333Z,55.54
2022-08-31T12:33:34.325Z,55.54
2022-08-31T12:34:34.348Z,55.74
2022-08-31T12:35:34.305Z,55.54
2022-08-31T12:36:34.318Z,55.44
2022-08-31T12:37:34.277Z,56.04
2022-08-31T12:38:34.289Z,55.66
2022-08-31T12:39:34.267Z,55.57
2022-08-31T12:40:34.464Z,56.07
2022-08-31T12:41:34.245Z,55.17
2022-08-31T12:42:34.225Z,55.57
2022-08-31T12:43:34.262Z,55.77
2022-08-31T12:44:34.201Z,55.77
2022-08-31T12:45:34.220Z,55.36
2022-08-31T12:46:34.351Z,55.36
2022-08-31T12:47:34.192Z,55.07
2022-08-31T12:48:34.162Z,55.44
2022-08-31T12:49:34.181Z,55.24
2022-08-31T12:50:34.203Z,55.34
2022-08-31T12:51:34.113Z,55.04
2022-08-31T12:52:34.111Z,54.74